Time,TemperatureF,DewpointF,PressureIn,WindDirection,WindDirectionDegrees,WindSpeedMPH,WindSpeedGustMPH,Humidity,HourlyPrecipIn,Conditions,Clouds,dailyrainin,SoftwareType,DateUTC
2013-03-21 00:02:00,45.0,32.0,-100.00,NNW,328,2.0,4.0,60,-99.99,,,-99.99,,2013-03-21 07:02:00,
2013-03-21 00:12:00,44.0,32.0,-100.00,NNE,24,1.0,3.0,63,-99.99,,,-99.99,,2013-03-21 07:12:00,
2013-03-21 00:21:00,44.0,32.0,-100.00,ENE,67,1.0,4.0,62,-99.99,,,-99.99,,2013-03-21 07:21:00,
2013-03-21 00:32:00,44.0,32.0,-100.00,East,91,2.0,4.0,62,-99.99,,,-99.99,,2013-03-21 07:32:00,
2013-03-21 00:42:00,43.0,32.0,-100.00,East,88,1.0,3.0,64,-99.99,,,-99.99,,2013-03-21 07:42:00,
2013-03-21 00:52:00,43.0,32.0,-100.00,North,5,2.0,3.0,65,-99.99,,,-99.99,,2013-03-21 07:52:00,
2013-03-21 01:01:00,44.0,32.0,-100.00,North,4,3.0,4.0,63,-99.99,,,-99.99,,2013-03-21 08:01:00,
2013-03-21 01:12:00,44.0,32.0,-100.00,NNE,12,4.0,6.0,63,-99.99,,,-99.99,,2013-03-21 08:12:00,
2013-03-21 01:22:00,44.0,33.0,-100.00,North,354,4.0,5.0,64,-99.99,,,-99.99,,2013-03-21 08:22:00,
2013-03-21 01:32:00,44.0,33.0,-100.00,North,354,4.0,5.0,64,-99.99,,,-99.99,,2013-03-21 08:32:00,
2013-03-21 01:42:00,45.0,33.0,-100.00,NNW,342,3.0,5.0,62,-99.99,,,-99.99,,2013-03-21 08:42:00,
2013-03-21 01:52:00,44.0,33.0,-100.00,NW,325,1.0,3.0,64,-99.99,,,-99.99,,2013-03-21 08:52:00,
2013-03-21 02:02:00,43.0,32.0,-100.00,SSE,150,1.0,3.0,66,-99.99,,,-99.99,,2013-03-21 09:02:00,
2013-03-21 02:11:00,43.0,32.0,-100.00,NE,56,1.0,4.0,66,-99.99,,,-99.99,,2013-03-21 09:11:00,
2013-03-21 02:21:00,44.0,33.0,-100.00,ESE,111,0.0,2.0,66,-99.99,,,-99.99,,2013-03-21 09:21:00,
2013-03-21 02:33:00,43.0,33.0,-100.00,ESE,103,1.0,2.0,68,-99.99,,,-99.99,,2013-03-21 09:33:00,
2013-03-21 02:43:00,43.0,34.0,-100.00,ESE,113,2.0,4.0,70,-99.99,,,-99.99,,2013-03-21 09:43:00,
2013-03-21 02:53:00,44.0,34.0,-100.00,East,96,3.0,5.0,69,-99.99,,,-99.99,,2013-03-21 09:53:00,
2013-03-21 03:02:00,44.0,34.0,-100.00,NNW,345,2.0,4.0,67,-99.99,,,-99.99,,2013-03-21 10:02:00,
2013-03-21 03:12:00,44.0,34.0,-100.00,North,357,3.0,4.0,67,-99.99,,,-99.99,,2013-03-21 10:12:00,
2013-03-21 03:22:00,45.0,35.0,-100.00,NNE,33,2.0,3.0,68,-99.99,,,-99.99,,2013-03-21 10:22:00,
2013-03-21 03:32:00,45.0,35.0,-100.00,NNE,26,1.0,3.0,68,-99.99,,,-99.99,,2013-03-21 10:32:00,
2013-03-21 03:42:00,44.0,34.0,-100.00,NNE,18,1.0,2.0,69,-99.99,,,-99.99,,2013-03-21 10:42:00,
2013-03-21 03:52:00,44.0,34.0,-100.00,ENE,67,2.0,3.0,69,-99.99,,,-99.99,,2013-03-21 10:52:00,
2013-03-21 04:02:00,45.0,35.0,-100.00,ENE,59,1.0,4.0,68,-99.99,,,-99.99,,2013-03-21 11:02:00,
2013-03-21 04:12:00,45.0,35.0,-100.00,SSW,194,2.0,3.0,68,-99.99,,,-99.99,,2013-03-21 11:12:00,
2013-03-21 04:22:00,43.0,35.0,-100.00,SSE,168,2.0,4.0,73,-99.99,,,-99.99,,2013-03-21 11:22:00,
2013-03-21 04:32:00,43.0,35.0,-100.00,ENE,78,4.0,6.0,74,-99.99,,,-99.99,,2013-03-21 11:32:00,
2013-03-21 04:42:00,44.0,35.0,-100.00,NNW,337,3.0,5.0,70,-99.99,,,-99.99,,2013-03-21 11:42:00,
2013-03-21 04:52:00,44.0,35.0,-100.00,NW,326,2.0,4.0,70,-99.99,,,-99.99,,2013-03-21 11:52:00,
2013-03-21 05:01:00,44.0,35.0,-100.00,NE,36,3.0,5.0,71,-99.99,,,-99.99,,2013-03-21 12:01:00,
2013-03-21 05:12:00,44.0,35.0,-100.00,West,272,1.0,3.0,70,-99.99,,,-99.99,,2013-03-21 12:12:00,
2013-03-21 05:22:00,44.0,35.0,-100.00,SSW,195,4.0,7.0,71,-99.99,,,-99.99,,2013-03-21 12:22:00,
2013-03-21 05:32:00,41.0,34.0,-100.00,South,177,5.0,9.0,76,-99.99,,,-99.99,,2013-03-21 12:32:00,
2013-03-21 05:42:00,41.0,35.0,-100.00,SSE,166,3.0,7.0,78,-99.99,,,-99.99,,2013-03-21 12:42:00,
2013-03-21 05:52:00,41.0,34.0,-100.00,NNW,328,5.0,7.0,77,-99.99,,,-99.99,,2013-03-21 12:52:00,
2013-03-21 06:02:00,43.0,35.0,-100.00,NNW,337,4.0,6.0,74,-99.99,,,-99.99,,2013-03-21 13:02:00,
2013-03-21 06:12:00,43.0,35.0,-100.00,NNW,338,4.0,5.0,72,-99.99,,,-99.99,,2013-03-21 13:12:00,
2013-03-21 06:22:00,43.0,35.0,-100.00,North,358,3.0,6.0,73,-99.99,,,-99.99,,2013-03-21 13:22:00,
2013-03-21 06:32:00,43.0,35.0,-100.00,North,360,3.0,4.0,74,-99.99,,,-99.99,,2013-03-21 13:32:00,
2013-03-21 06:42:00,44.0,36.0,-100.00,North,355,5.0,6.0,73,-99.99,,,-99.99,,2013-03-21 13:42:00,
2013-03-21 06:52:00,44.0,36.0,-100.00,North,355,5.0,6.0,73,-99.99,,,-99.99,,2013-03-21 13:52:00,
2013-03-21 07:02:00,44.0,36.0,-100.00,North,360,4.0,6.0,72,-99.99,,,-99.99,,2013-03-21 14:02:00,
2013-03-21 07:11:00,43.0,35.0,-100.00,NNE,30,2.0,5.0,73,-99.99,,,-99.99,,2013-03-21 14:11:00,
2013-03-21 07:21:00,43.0,35.0,-100.00,WNW,300,3.0,5.0,74,-99.99,,,-99.99,,2013-03-21 14:21:00,
2013-03-21 07:32:00,43.0,35.0,-100.00,ESE,120,2.0,3.0,74,-99.99,,,-99.99,,2013-03-21 14:32:00,
2013-03-21 07:42:00,42.0,35.0,-100.00,NE,45,2.0,5.0,75,-99.99,,,-99.99,,2013-03-21 14:42:00,
2013-03-21 07:52:00,42.0,35.0,-100.00,NE,45,2.0,5.0,75,-99.99,,,-99.99,,2013-03-21 14:52:00,
2013-03-21 08:02:00,44.0,36.0,-100.00,North,3,4.0,7.0,74,-99.99,,,-99.99,,2013-03-21 15:02:00,
2013-03-21 08:12:00,45.0,36.0,-100.00,South,174,2.0,5.0,71,-99.99,,,-99.99,,2013-03-21 15:12:00,
2013-03-21 08:22:00,46.0,37.0,-100.00,SW,219,5.0,8.0,70,-99.99,,,-99.99,,2013-03-21 15:22:00,
2013-03-21 08:32:00,45.0,36.0,-100.00,SSE,160,5.0,9.0,70,-99.99,,,-99.99,,2013-03-21 15:32:00,
2013-03-21 08:42:00,46.0,36.0,-100.00,SSW,199,4.0,9.0,69,-99.99,,,-99.99,,2013-03-21 15:42:00,
2013-03-21 08:52:00,46.0,37.0,-100.00,South,174,3.0,5.0,70,-99.99,,,-99.99,,2013-03-21 15:52:00,
2013-03-21 09:03:00,47.0,38.0,-100.00,SSE,165,3.0,5.0,71,-99.99,,,-99.99,,2013-03-21 16:03:00,
2013-03-21 09:12:00,47.0,37.0,-100.00,South,187,3.0,6.0,69,-99.99,,,-99.99,,2013-03-21 16:12:00,
2013-03-21 09:22:00,48.0,38.0,-100.00,South,169,3.0,6.0,67,-99.99,,,-99.99,,2013-03-21 16:22:00,
2013-03-21 09:32:00,49.0,38.0,-100.00,SSW,196,5.0,8.0,66,-99.99,,,-99.99,,2013-03-21 16:32:00,
2013-03-21 09:42:00,50.0,38.0,-100.00,SSW,208,4.0,6.0,64,-99.99,,,-99.99,,2013-03-21 16:42:00,
2013-03-21 09:52:00,52.0,39.0,-100.00,South,175,4.0,8.0,61,-99.99,,,-99.99,,2013-03-21 16:52:00,
2013-03-21 10:02:00,54.0,39.0,-100.00,SSW,211,7.0,11.0,57,-99.99,,,-99.99,,2013-03-21 17:02:00,
2013-03-21 10:12:00,56.0,39.0,-100.00,SSW,205,7.0,13.0,52,-99.99,,,-99.99,,2013-03-21 17:12:00,
2013-03-21 10:22:00,56.0,39.0,-100.00,South,189,7.0,13.0,52,-99.99,,,-99.99,,2013-03-21 17:22:00,
2013-03-21 10:32:00,59.0,38.0,-100.00,WSW,246,5.0,12.0,45,-99.99,,,-99.99,,2013-03-21 17:32:00,
2013-03-21 10:42:00,63.0,36.0,-100.00,NNW,338,6.0,12.0,37,-99.99,,,-99.99,,2013-03-21 17:42:00,
2013-03-21 10:52:00,64.0,34.0,-100.00,NNW,345,8.0,13.0,33,-99.99,,,-99.99,,2013-03-21 17:52:00,
2013-03-21 11:02:00,65.0,34.0,-100.00,NNW,343,6.0,10.0,32,-99.99,,,-99.99,,2013-03-21 18:02:00,
2013-03-21 11:11:00,65.0,34.0,-100.00,North,355,7.0,10.0,31,-99.99,,,-99.99,,2013-03-21 18:11:00,
2013-03-21 11:22:00,66.0,34.0,-100.00,NW,323,7.0,12.0,30,-99.99,,,-99.99,,2013-03-21 18:22:00,
2013-03-21 11:32:00,67.0,35.0,-100.00,WSW,250,4.0,8.0,30,-99.99,,,-99.99,,2013-03-21 18:32:00,
2013-03-21 11:42:00,68.0,35.0,-100.00,SSE,167,3.0,9.0,29,-99.99,,,-99.99,,2013-03-21 18:42:00,
2013-03-21 11:52:00,67.0,35.0,-100.00,WSW,239,9.0,15.0,31,-99.99,,,-99.99,,2013-03-21 18:52:00,
2013-03-21 12:02:00,67.0,35.0,-100.00,WSW,239,9.0,15.0,31,-99.99,,,-99.99,,2013-03-21 19:02:00,
2013-03-21 12:12:00,62.0,39.0,-100.00,SSE,167,9.0,15.0,42,-99.99,,,-99.99,,2013-03-21 19:12:00,
2013-03-21 12:22:00,63.0,38.0,-100.00,SSE,162,5.0,12.0,40,-99.99,,,-99.99,,2013-03-21 19:22:00,
2013-03-21 12:32:00,63.0,38.0,-100.00,South,177,5.0,10.0,39,-99.99,,,-99.99,,2013-03-21 19:32:00,
2013-03-21 12:42:00,64.0,36.0,-100.00,WNW,301,8.0,15.0,35,-99.99,,,-99.99,,2013-03-21 19:42:00,
2013-03-21 12:52:00,64.0,37.0,-100.00,WNW,299,9.0,15.0,36,-99.99,,,-99.99,,2013-03-21 19:52:00,
2013-03-21 13:02:00,64.0,37.0,-100.00,WNW,297,8.0,13.0,36,-99.99,,,-99.99,,2013-03-21 20:02:00,
2013-03-21 13:12:00,64.0,36.0,-100.00,WNW,296,8.0,13.0,35,-99.99,,,-99.99,,2013-03-21 20:12:00,
2013-03-21 13:22:00,64.0,36.0,-100.00,WNW,288,9.0,14.0,35,-99.99,,,-99.99,,2013-03-21 20:22:00,
2013-03-21 13:32:00,64.0,36.0,-100.00,WNW,288,9.0,15.0,35,-99.99,,,-99.99,,2013-03-21 20:32:00,
2013-03-21 13:42:00,64.0,37.0,-100.00,WNW,295,9.0,13.0,37,-99.99,,,-99.99,,2013-03-21 20:42:00,
2013-03-21 13:52:00,64.0,37.0,-100.00,WNW,302,9.0,16.0,36,-99.99,,,-99.99,,2013-03-21 20:52:00,
2013-03-21 14:01:00,64.0,37.0,-100.00,WNW,293,8.0,13.0,36,-99.99,,,-99.99,,2013-03-21 21:01:00,
2013-03-21 14:12:00,64.0,38.0,-100.00,West,263,11.0,16.0,38,-99.99,,,-99.99,,2013-03-21 21:12:00,
2013-03-21 14:22:00,64.0,38.0,-100.00,West,278,10.0,15.0,38,-99.99,,,-99.99,,2013-03-21 21:22:00,
2013-03-21 14:32:00,64.0,38.0,-100.00,West,278,10.0,15.0,38,-99.99,,,-99.99,,2013-03-21 21:32:00,
2013-03-21 14:43:00,64.0,40.0,-100.00,West,267,10.0,18.0,42,-99.99,,,-99.99,,2013-03-21 21:43:00,
2013-03-21 14:52:00,64.0,41.0,-100.00,West,274,11.0,15.0,43,-99.99,,,-99.99,,2013-03-21 21:52:00,
2013-03-21 15:02:00,64.0,40.0,-100.00,West,262,11.0,15.0,41,-99.99,,,-99.99,,2013-03-21 22:02:00,
2013-03-21 15:12:00,64.0,40.0,-100.00,West,280,10.0,17.0,42,-99.99,,,-99.99,,2013-03-21 22:12:00,
2013-03-21 15:22:00,64.0,42.0,-100.00,WNW,290,8.0,14.0,45,-99.99,,,-99.99,,2013-03-21 22:22:00,
2013-03-21 15:33:00,62.0,43.0,-100.00,WNW,283,10.0,16.0,49,-99.99,,,-99.99,,2013-03-21 22:33:00,
2013-03-21 15:42:00,62.0,42.0,-100.00,WNW,288,10.0,15.0,48,-99.99,,,-99.99,,2013-03-21 22:42:00,
2013-03-21 15:52:00,62.0,45.0,-100.00,WNW,290,8.0,12.0,53,-99.99,,,-99.99,,2013-03-21 22:52:00,
2013-03-21 16:02:00,62.0,45.0,-100.00,WNW,290,8.0,13.0,53,-99.99,,,-99.99,,2013-03-21 23:02:00,
2013-03-21 16:12:00,61.0,44.0,-100.00,WNW,290,8.0,11.0,54,-99.99,,,-99.99,,2013-03-21 23:12:00,
2013-03-21 16:21:00,62.0,45.0,-100.00,WNW,289,7.0,12.0,53,-99.99,,,-99.99,,2013-03-21 23:21:00,
2013-03-21 16:32:00,63.0,44.0,-100.00,West,276,5.0,11.0,50,-99.99,,,-99.99,,2013-03-21 23:32:00,
2013-03-21 16:42:00,64.0,43.0,-100.00,West,275,4.0,10.0,47,-99.99,,,-99.99,,2013-03-21 23:42:00,
2013-03-21 16:52:00,65.0,44.0,-100.00,WNW,293,5.0,11.0,46,-99.99,,,-99.99,,2013-03-21 23:52:00,
2013-03-21 17:02:00,64.0,40.0,-100.00,West,268,9.0,12.0,42,-99.99,,,-99.99,,2013-03-22 00:02:00,
2013-03-21 17:12:00,64.0,42.0,-100.00,West,260,7.0,12.0,44,-99.99,,,-99.99,,2013-03-22 00:12:00,
2013-03-21 17:22:00,64.0,42.0,-100.00,West,273,6.0,10.0,45,-99.99,,,-99.99,,2013-03-22 00:22:00,
2013-03-21 17:31:00,64.0,44.0,-100.00,WNW,288,7.0,12.0,48,-99.99,,,-99.99,,2013-03-22 00:31:00,
2013-03-21 17:42:00,64.0,44.0,-100.00,WNW,288,7.0,12.0,48,-99.99,,,-99.99,,2013-03-22 00:42:00,
2013-03-21 17:52:00,62.0,45.0,-100.00,West,276,9.0,13.0,53,-99.99,,,-99.99,,2013-03-22 00:52:00,
2013-03-21 18:02:00,61.0,45.0,-100.00,West,279,8.0,15.0,55,-99.99,,,-99.99,,2013-03-22 01:02:00,
2013-03-21 18:12:00,61.0,46.0,-100.00,West,281,8.0,14.0,57,-99.99,,,-99.99,,2013-03-22 01:12:00,
2013-03-21 18:21:00,61.0,47.0,-100.00,West,277,9.0,14.0,59,-99.99,,,-99.99,,2013-03-22 01:21:00,
2013-03-21 18:32:00,60.0,46.0,-100.00,West,273,7.0,12.0,59,-99.99,,,-99.99,,2013-03-22 01:32:00,
2013-03-21 18:42:00,60.0,46.0,-100.00,West,281,8.0,12.0,59,-99.99,,,-99.99,,2013-03-22 01:42:00,
2013-03-21 18:52:00,59.0,46.0,-100.00,WNW,283,6.0,11.0,61,-99.99,,,-99.99,,2013-03-22 01:52:00,
2013-03-21 19:02:00,58.0,45.0,-100.00,WNW,283,6.0,12.0,63,-99.99,,,-99.99,,2013-03-22 02:02:00,
2013-03-21 19:12:00,57.0,45.0,-100.00,West,273,5.0,9.0,64,-99.99,,,-99.99,,2013-03-22 02:12:00,
2013-03-21 19:22:00,57.0,46.0,-100.00,WNW,284,6.0,11.0,66,-99.99,,,-99.99,,2013-03-22 02:22:00,
2013-03-21 19:32:00,56.0,46.0,-100.00,NW,308,7.0,13.0,69,-99.99,,,-99.99,,2013-03-22 02:32:00,
2013-03-21 19:42:00,55.0,46.0,-100.00,NW,320,7.0,11.0,71,-99.99,,,-99.99,,2013-03-22 02:42:00,
2013-03-21 19:51:00,54.0,46.0,-100.00,NW,311,6.0,10.0,73,-99.99,,,-99.99,,2013-03-22 02:51:00,
2013-03-21 20:02:00,53.0,45.0,-100.00,NW,307,8.0,13.0,74,-99.99,,,-99.99,,2013-03-22 03:02:00,
2013-03-21 20:12:00,52.0,44.0,-100.00,NW,307,9.0,13.0,75,-99.99,,,-99.99,,2013-03-22 03:12:00,
2013-03-21 20:21:00,52.0,44.0,-100.00,NW,312,7.0,10.0,75,-99.99,,,-99.99,,2013-03-22 03:21:00,
2013-03-21 20:33:00,53.0,45.0,-100.00,NW,309,5.0,9.0,75,-99.99,,,-99.99,,2013-03-22 03:33:00,
2013-03-21 20:42:00,52.0,44.0,-100.00,NNW,327,4.0,10.0,75,-99.99,,,-99.99,,2013-03-22 03:42:00,
2013-03-21 20:52:00,52.0,44.0,-100.00,West,271,6.0,8.0,74,-99.99,,,-99.99,,2013-03-22 03:52:00,
2013-03-21 21:03:00,52.0,44.0,-100.00,SE,141,2.0,4.0,73,-99.99,,,-99.99,,2013-03-22 04:03:00,
2013-03-21 21:12:00,50.0,43.0,-100.00,East,86,2.0,3.0,77,-99.99,,,-99.99,,2013-03-22 04:12:00,
2013-03-21 21:22:00,50.0,44.0,-100.00,NW,325,2.0,3.0,79,-99.99,,,-99.99,,2013-03-22 04:22:00,
2013-03-21 21:32:00,49.0,42.0,-100.00,ENE,58,1.0,3.0,78,-99.99,,,-99.99,,2013-03-22 04:32:00,
2013-03-21 21:42:00,48.0,42.0,-100.00,East,83,2.0,4.0,80,-99.99,,,-99.99,,2013-03-22 04:42:00,
2013-03-21 21:52:00,48.0,43.0,-100.00,ENE,71,2.0,4.0,83,-99.99,,,-99.99,,2013-03-22 04:52:00,
2013-03-21 22:02:00,47.0,41.0,-100.00,SSW,209,0.0,1.0,81,-99.99,,,-99.99,,2013-03-22 05:02:00,
2013-03-21 22:12:00,46.0,41.0,-100.00,SSW,196,1.0,3.0,83,-99.99,,,-99.99,,2013-03-22 05:12:00,
2013-03-21 22:22:00,46.0,42.0,-100.00,NNE,28,1.0,2.0,85,-99.99,,,-99.99,,2013-03-22 05:22:00,
2013-03-21 22:32:00,46.0,42.0,-100.00,North,1,2.0,4.0,86,-99.99,,,-99.99,,2013-03-22 05:32:00,
2013-03-21 22:42:00,44.0,40.0,-100.00,North,4,4.0,5.0,86,-99.99,,,-99.99,,2013-03-22 05:42:00,
2013-03-21 22:52:00,44.0,41.0,-100.00,North,354,4.0,5.0,88,-99.99,,,-99.99,,2013-03-22 05:52:00,
2013-03-21 23:02:00,44.0,40.0,-100.00,North,352,4.0,5.0,87,-99.99,,,-99.99,,2013-03-22 06:02:00,
2013-03-21 23:12:00,44.0,40.0,-100.00,NNW,342,3.0,5.0,85,-99.99,,,-99.99,,2013-03-22 06:12:00,
2013-03-21 23:21:00,44.0,39.0,-100.00,NE,41,3.0,5.0,82,-99.99,,,-99.99,,2013-03-22 06:21:00,
2013-03-21 23:32:00,43.0,38.0,-100.00,South,176,1.0,3.0,84,-99.99,,,-99.99,,2013-03-22 06:32:00,
2013-03-21 23:42:00,42.0,38.0,-100.00,ENE,64,1.0,2.0,87,-99.99,,,-99.99,,2013-03-22 06:42:00,
2013-03-21 23:52:00,42.0,39.0,-100.00,NNE,30,2.0,3.0,89,-99.99,,,-99.99,,2013-03-22 06:52:00,